Time;durP1;ratioP1;P1;durP2;ratioP2;P2;SDS_P1;SDS_P2;PMS_P1;PMS_P2;Temp;Humidity;BMP_temperature;BMP_pressure;BME280_temperature;BME280_humidity;BME280_pressure;Samples;Min_cycle;Max_cycle;Signal;HPM_P1;HPM_P2
2022/11/14 00:00:05;;;;;;;;;32.75;27.50;;;;;11.19;65.34;100958.88;5037782;28;45455;-68
2022/11/14 00:02:31;;;;;;;;;32.00;28.00;;;;;11.11;65.65;100967.56;5036180;28;45815;-66
2022/11/14 00:04:56;;;;;;;;;35.25;27.75;;;;;11.05;65.66;100961.19;5036575;28;45275;-67
2022/11/14 00:07:21;;;;;;;;;31.25;26.25;;;;;11.01;66.49;100958.41;5035559;28;45589;-67
2022/11/14 00:09:47;;;;;;;;;35.25;29.25;;;;;11.10;65.64;100955.94;5033828;28;45618;-68
2022/11/14 00:12:12;;;;;;;;;38.75;32.75;;;;;11.03;65.86;100929.91;5045507;28;45475;-67
2022/11/14 00:14:37;;;;;;;;;34.25;26.25;;;;;11.09;65.98;100937.19;5036769;28;45732;-68
2022/11/14 00:17:04;;;;;;;;;41.75;32.00;;;;;11.11;65.88;100947.09;5035257;28;45734;-68
2022/11/14 00:19:30;;;;;;;;;31.25;27.50;;;;;11.07;65.73;100930.06;5034869;28;45611;-67
2022/11/14 00:21:55;;;;;;;;;36.75;32.00;;;;;11.12;65.72;100934.59;5034966;28;45768;-67
2022/11/14 00:24:20;;;;;;;;;35.50;27.75;;;;;11.02;65.16;100910.31;5017076;28;46044;-65
2022/11/14 00:26:46;;;;;;;;;34.00;27.75;;;;;11.10;65.21;100934.56;5034461;28;45610;-68
2022/11/14 00:29:13;;;;;;;;;39.75;28.50;;;;;10.95;66.12;100910.97;5047752;28;46460;-63
2022/11/14 00:31:38;;;;;;;;;32.00;27.50;;;;;11.10;66.16;100937.22;5045375;28;45566;-66
2022/11/14 00:34:04;;;;;;;;;34.00;24.75;;;;;11.07;65.65;100937.19;5034345;28;45535;-67
2022/11/14 00:36:30;;;;;;;;;35.75;25.00;;;;;11.10;65.47;100937.22;5048061;28;45400;-65
2022/11/14 00:38:55;;;;;;;;;29.25;23.50;;;;;11.05;66.50;100922.84;5034242;28;45515;-68
2022/11/14 00:41:20;;;;;;;;;30.75;26.25;;;;;11.07;66.58;100934.50;5034457;28;45688;-69
2022/11/14 00:43:46;;;;;;;;;29.50;25.25;;;;;11.11;66.42;100928.38;5037820;28;45502;-68
2022/11/14 00:46:11;;;;;;;;;26.25;21.50;;;;;10.98;66.05;100895.03;5044178;28;45577;-69
2022/11/14 00:48:37;;;;;;;;;27.00;24.75;;;;;11.13;64.99;100909.69;5055470;28;45892;-68
2022/11/14 00:51:02;;;;;;;;;27.75;21.50;;;;;11.16;65.64;100907.09;5052322;28;45095;-67
2022/11/14 00:53:28;;;;;;;;;27.75;25.00;;;;;11.30;65.48;100918.16;5059330;28;45231;-69
2022/11/14 00:55:53;;;;;;;;;28.00;22.00;;;;;11.36;65.40;100921.00;5061315;28;44930;-67
2022/11/14 00:58:18;;;;;;;;;28.50;23.25;;;;;11.36;65.00;100905.84;5058866;28;45205;-63
2022/11/14 01:00:44;;;;;;;;;45.50;31.75;;;;;11.35;64.73;100892.41;5062518;28;44941;-63
2022/11/14 01:03:09;;;;;;;;;30.25;23.75;;;;;11.34;65.12;100885.28;5064566;28;45456;-64
2022/11/14 01:05:41;;;;;;;;;25.50;20.00;;;;;11.21;64.42;100866.22;5060646;28;46146;-63
2022/11/14 01:08:06;;;;;;;;;28.25;23.25;;;;;11.42;64.89;100907.78;5055643;28;45536;-65
2022/11/14 01:10:31;;;;;;;;;33.00;27.25;;;;;11.33;65.21;100887.03;5040638;28;45167;-65
2022/11/14 01:12:57;;;;;;;;;27.25;21.25;;;;;11.38;64.63;100903.19;5055488;28;45006;-67
2022/11/14 01:15:22;;;;;;;;;21.25;20.25;;;;;11.39;64.62;100907.69;5038900;28;45604;-65
2022/11/14 01:17:47;;;;;;;;;26.25;19.75;;;;;11.39;64.44;100905.91;5073594;27;46897;-65
2022/11/14 01:20:14;;;;;;;;;32.75;24.25;;;;;11.40;64.29;100899.72;5037112;28;62225;-63
2022/11/14 01:22:39;;;;;;;;;28.50;24.25;;;;;11.43;63.70;100897.13;5050796;28;45265;-64
2022/11/14 01:25:05;;;;;;;;;34.75;28.25;;;;;11.36;63.82;100891.56;5077708;28;45367;-63
2022/11/14 01:27:30;;;;;;;;;31.00;24.50;;;;;11.12;64.91;100898.09;5055591;28;45346;-63
2022/11/14 01:29:56;;;;;;;;;26.75;25.25;;;;;11.03;65.14;100881.78;5046778;28;44911;-64
2022/11/14 01:32:21;;;;;;;;;36.00;22.25;;;;;10.90;65.38;100863.63;5072346;28;57424;-67
2022/11/14 01:34:46;;;;;;;;;23.50;21.50;;;;;11.05;65.63;100890.75;5063473;28;45544;-64
2022/11/14 01:37:12;;;;;;;;;24.25;23.50;;;;;11.12;65.41;100881.13;5037687;28;46138;-67
2022/11/14 01:39:37;;;;;;;;;39.25;30.00;;;;;11.18;65.35;100879.50;5059560;28;44925;-68
2022/11/14 01:42:03;;;;;;;;;29.75;24.75;;;;;11.06;65.20;100850.69;5062165;28;45332;-67
2022/11/14 01:44:42;;;;;;;;;25.00;23.00;;;;;11.04;64.87;100849.75;5052865;28;45116;-66
2022/11/14 01:47:10;;;;;;;;;28.00;24.50;;;;;11.12;65.16;100860.66;5035227;28;46820;-68
2022/11/14 01:49:40;;;;;;;;;35.00;28.75;;;;;11.11;65.48;100848.16;5060336;28;45179;-68
2022/11/14 01:52:10;;;;;;;;;36.75;28.25;;;;;11.07;64.78;100846.28;5050486;28;45041;-66
2022/11/14 01:54:45;;;;;;;;;31.50;25.00;;;;;11.11;65.16;100848.16;5058001;28;44862;-65
2022/11/14 01:57:15;;;;;;;;;33.50;26.75;;;;;11.14;65.18;100856.25;5052363;28;45247;-66
2022/11/14 01:59:46;;;;;;;;;28.75;24.75;;;;;11.10;64.86;100840.06;5055886;28;45342;-67
2022/11/14 02:02:16;;;;;;;;;37.75;27.75;;;;;11.07;65.00;100851.63;5050691;28;45161;-64
2022/11/14 02:04:54;;;;;;;;;36.00;27.00;;;;;11.00;64.81;100846.97;5041981;28;45298;-66
2022/11/14 02:07:19;;;;;;;;;37.50;29.75;;;;;11.00;64.75;100849.63;5042834;28;47547;-66
2022/11/14 02:09:47;;;;;;;;;31.50;28.50;;;;;11.03;66.00;100860.41;5068410;28;45212;-66
2022/11/14 02:12:15;;;;;;;;;22.00;18.25;;;;;11.01;65.58;100856.78;5044279;28;45072;-68
2022/11/14 02:14:44;;;;;;;;;34.25;31.00;;;;;11.04;65.86;100851.53;5061602;28;45132;-67
2022/11/14 02:17:10;;;;;;;;;31.25;28.75;;;;;11.11;65.57;100853.50;5059627;28;45524;-66
2022/11/14 02:19:44;;;;;;;;;35.50;27.75;;;;;11.13;65.78;100850.84;5059694;28;45205;-68
2022/11/14 02:22:09;;;;;;;;;36.25;30.50;;;;;11.00;65.69;100836.25;5057900;28;45171;-66
2022/11/14 02:24:35;;;;;;;;;40.00;32.00;;;;;11.11;65.89;100853.50;5037438;28;44998;-67
2022/11/14 02:27:02;;;;;;;;;40.00;32.75;;;;;11.05;65.59;100847.97;5068662;28;45217;-67
2022/11/14 02:29:28;;;;;;;;;45.00;33.50;;;;;10.94;65.78;100836.09;5044843;28;45093;-66
2022/11/14 02:31:53;;;;;;;;;39.75;30.50;;;;;10.92;66.20;100837.81;5065294;28;45133;-68
2022/11/14 02:34:18;;;;;;;;;39.75;32.25;;;;;10.87;66.47;100846.66;5064703;28;45308;-68
2022/11/14 02:36:44;;;;;;;;;34.00;30.00;;;;;10.86;66.14;100846.59;5046735;28;47185;-67
2022/11/14 02:39:10;;;;;;;;;35.75;25.00;;;;;10.82;65.79;100834.00;5058539;28;45075;-68
2022/11/14 02:41:35;;;;;;;;;34.50;27.25;;;;;10.81;66.21;100838.47;5039511;28;45030;-67
2022/11/14 02:44:00;;;;;;;;;31.25;26.50;;;;;10.64;65.98;100807.69;5058665;28;45212;-69
2022/11/14 02:46:26;;;;;;;;;28.75;22.25;;;;;10.65;66.25;100813.09;5055967;28;47665;-68
2022/11/14 02:48:51;;;;;;;;;31.75;24.50;;;;;10.72;66.28;100823.94;5058745;28;45025;-66
2022/11/14 02:51:16;;;;;;;;;41.25;30.50;;;;;10.80;66.61;100835.75;5057295;28;45414;-66
2022/11/14 02:53:42;;;;;;;;;33.75;26.50;;;;;10.79;66.51;100834.84;5057813;28;45076;-66
2022/11/14 02:56:07;;;;;;;;;31.50;25.25;;;;;10.70;66.71;100818.56;5056406;28;45768;-69
2022/11/14 02:58:33;;;;;;;;;29.25;23.75;;;;;10.64;66.03;100811.28;5057032;28;45008;-67
2022/11/14 03:00:58;;;;;;;;;32.25;26.25;;;;;10.51;66.73;100795.78;5056183;28;45196;-69
2022/11/14 03:03:23;;;;;;;;;31.75;25.75;;;;;10.48;66.71;100811.72;5062106;28;45108;-67
2022/11/14 03:05:51;;;;;;;;;28.00;20.75;;;;;10.45;66.86;100808.97;5069320;28;49973;-67
2022/11/14 03:08:16;;;;;;;;;33.00;25.00;;;;;10.50;66.79;100808.22;5046533;28;45152;-69
2022/11/14 03:10:41;;;;;;;;;23.50;22.50;;;;;10.42;66.41;100803.53;5066909;28;57231;-67
2022/11/14 03:13:07;;;;;;;;;24.00;21.00;;;;;10.46;66.91;100808.09;5057915;28;44915;-67
2022/11/14 03:15:36;;;;;;;;;29.50;23.00;;;;;10.38;66.70;100802.56;5042194;28;46942;-67
2022/11/14 03:18:02;;;;;;;;;30.00;23.50;;;;;10.27;67.08;100779.94;5064008;28;45482;-67
2022/11/14 03:20:27;;;;;;;;;29.75;21.00;;;;;10.37;67.28;100795.41;5067481;28;45158;-68
2022/11/14 03:22:52;;;;;;;;;32.50;25.25;;;;;10.36;67.46;100790.94;5054446;28;44985;-68
2022/11/14 03:25:18;;;;;;;;;28.00;21.00;;;;;10.37;67.68;100794.50;5053048;28;45838;-68
2022/11/14 03:27:43;;;;;;;;;22.75;19.00;;;;;10.33;67.34;100783.72;5056006;28;45101;-67
2022/11/14 03:30:09;;;;;;;;;29.50;21.00;;;;;10.50;67.39;100799.31;5064577;28;45058;-68
2022/11/14 03:32:34;;;;;;;;;23.00;19.75;;;;;10.51;67.46;100802.03;5063537;28;45527;-68
2022/11/14 03:35:00;;;;;;;;;23.50;20.75;;;;;10.51;67.02;100793.13;5057057;28;45586;-68
2022/11/14 03:37:25;;;;;;;;;24.25;20.50;;;;;10.56;67.60;100802.16;5074716;28;45281;-68
2022/11/14 03:39:50;;;;;;;;;24.25;22.00;;;;;10.48;66.86;100779.69;5045463;28;46686;-68
2022/11/14 03:42:16;;;;;;;;;27.50;23.25;;;;;10.50;66.78;100791.31;5056956;28;44918;-68
2022/11/14 03:44:41;;;;;;;;;25.75;21.00;;;;;10.48;67.08;100809.97;5054415;28;64598;-68
2022/11/14 03:47:06;;;;;;;;;26.25;19.00;;;;;10.49;67.74;100808.19;5066187;28;45570;-68
2022/11/14 03:49:32;;;;;;;;;29.25;22.00;;;;;10.53;67.43;100802.06;5043986;28;44996;-67
2022/11/14 03:51:57;;;;;;;;;19.75;17.25;;;;;10.48;67.50;100772.56;5054611;28;45609;-67
2022/11/14 03:54:22;;;;;;;;;26.75;21.25;;;;;10.58;66.86;100786.19;5054458;28;45091;-68
2022/11/14 03:56:48;;;;;;;;;32.50;24.50;;;;;10.61;67.22;100795.16;5055374;28;45066;-68
2022/11/14 03:59:13;;;;;;;;;25.50;20.75;;;;;10.59;67.11;100799.56;5053099;28;44926;-64
2022/11/14 04:01:38;;;;;;;;;24.00;21.00;;;;;10.60;67.46;100800.47;5056767;28;45482;-68
2022/11/14 04:04:04;;;;;;;;;27.00;20.25;;;;;10.56;67.10;100799.50;5073222;28;47280;-68
2022/11/14 04:06:29;;;;;;;;;25.00;23.00;;;;;10.42;67.41;100774.16;5062827;28;45312;-67
2022/11/14 04:08:55;;;;;;;;;22.00;19.75;;;;;10.51;67.56;100775.31;5060663;28;45490;-67
2022/11/14 04:11:21;;;;;;;;;18.00;17.00;;;;;10.61;67.49;100791.56;5054871;28;44751;-66
2022/11/14 04:13:46;;;;;;;;;22.50;18.25;;;;;10.55;67.97;100775.41;5075341;28;47660;-67
2022/11/14 04:16:12;;;;;;;;;18.75;16.75;;;;;10.64;67.51;100783.66;5065872;28;45068;-67
2022/11/14 04:18:37;;;;;;;;;23.75;17.75;;;;;10.57;67.74;100787.91;5054264;28;45043;-66
2022/11/14 04:21:03;;;;;;;;;18.25;17.25;;;;;10.66;67.39;100782.84;5033216;28;45146;-70
2022/11/14 04:23:28;;;;;;;;;12.50;11.75;;;;;10.69;66.95;100774.91;5053433;28;45507;-68
2022/11/14 04:25:53;;;;;;;;;33.00;22.25;;;;;10.69;67.60;100772.22;5049670;28;45074;-67
2022/11/14 04:28:19;;;;;;;;;21.00;20.50;;;;;10.66;67.75;100777.50;5049523;28;56532;-68
2022/11/14 04:30:44;;;;;;;;;25.50;22.00;;;;;10.65;67.40;100794.38;5054641;28;45119;-66
2022/11/14 04:33:10;;;;;;;;;22.75;17.75;;;;;10.62;67.32;100780.94;5056667;28;45209;-66
2022/11/14 04:35:35;;;;;;;;;25.75;19.75;;;;;10.63;67.82;100777.41;5034022;28;45235;-68
2022/11/14 04:38:01;;;;;;;;;17.75;15.75;;;;;10.69;67.73;100784.66;5062898;28;45039;-67
2022/11/14 04:40:26;;;;;;;;;21.25;17.50;;;;;10.64;67.04;100772.97;5063964;28;45267;-63
2022/11/14 04:42:52;;;;;;;;;25.75;17.25;;;;;10.59;67.32;100774.59;5055605;28;46626;-69
2022/11/14 04:45:17;;;;;;;;;26.75;18.00;;;;;10.55;67.68;100768.28;5051608;28;45244;-69
2022/11/14 04:47:43;;;;;;;;;24.00;21.00;;;;;10.63;67.89;100796.13;5038301;28;45138;-67
2022/11/14 04:50:09;;;;;;;;;27.25;18.25;;;;;10.61;67.85;100780.88;5059702;28;45470;-69
2022/11/14 04:52:34;;;;;;;;;16.75;16.25;;;;;10.55;69.09;100786.09;5052823;28;47144;-68
2022/11/14 04:54:59;;;;;;;;;28.75;19.00;;;;;10.57;68.10;100785.25;5056620;28;45585;-67
2022/11/14 04:57:25;;;;;;;;;16.50;14.50;;;;;10.44;67.93;100761.75;5052860;28;45089;-69
2022/11/14 04:59:51;;;;;;;;;21.50;17.75;;;;;10.44;68.60;100759.06;5053440;28;45406;-67
2022/11/14 05:02:16;;;;;;;;;24.75;16.00;;;;;10.42;68.95;100761.69;5050754;28;46241;-67
2022/11/14 05:04:43;;;;;;;;;23.00;16.75;;;;;10.39;68.62;100766.06;5050667;28;45336;-68
2022/11/14 05:07:08;;;;;;;;;17.75;14.75;;;;;10.45;69.29;100768.91;5057568;28;45086;-67
2022/11/14 05:09:35;;;;;;;;;20.50;17.50;;;;;10.35;69.49;100757.06;5052889;28;45409;-65
2022/11/14 05:12:01;;;;;;;;;20.00;18.25;;;;;10.44;69.70;100761.75;5066953;28;45727;-67
2022/11/14 05:14:26;;;;;;;;;21.25;15.75;;;;;10.50;69.03;100760.13;5053350;28;45105;-68
2022/11/14 05:16:52;;;;;;;;;23.25;19.00;;;;;10.26;68.62;100708.69;5064755;28;45021;-67
2022/11/14 05:19:17;;;;;;;;;18.00;15.25;;;;;10.50;69.29;100752.13;5036560;28;45038;-67
2022/11/14 05:21:43;;;;;;;;;21.75;18.50;;;;;10.44;68.74;100727.94;5077435;28;47120;-68
2022/11/14 05:24:08;;;;;;;;;24.50;18.75;;;;;10.46;68.96;100736.91;5058592;28;45193;-66
2022/11/14 05:26:33;;;;;;;;;15.50;14.25;;;;;10.53;68.64;100742.41;5051255;28;45192;-67
2022/11/14 05:28:59;;;;;;;;;19.00;16.00;;;;;10.47;68.43;100735.13;5051272;28;45215;-67
2022/11/14 05:31:24;;;;;;;;;21.00;18.25;;;;;10.53;69.30;100739.75;5060885;28;46162;-69
2022/11/14 05:33:50;;;;;;;;;18.75;16.00;;;;;10.45;68.82;100723.50;5043761;28;45463;-67
2022/11/14 05:36:16;;;;;;;;;25.00;22.50;;;;;10.52;69.23;100733.47;5058439;28;44985;-68
2022/11/14 05:38:42;;;;;;;;;22.75;16.50;;;;;10.52;69.07;100738.81;5058495;28;45542;-67
2022/11/14 05:41:10;;;;;;;;;22.75;19.25;;;;;10.57;69.25;100738.94;5060268;28;45738;-68
2022/11/14 05:43:36;;;;;;;;;21.50;20.75;;;;;10.59;69.08;100726.53;5053935;28;45040;-69
2022/11/14 05:46:03;;;;;;;;;28.25;17.75;;;;;10.58;68.78;100719.38;5039539;28;45119;-67
2022/11/14 05:48:29;;;;;;;;;21.00;16.50;;;;;10.63;68.78;100717.72;5060731;28;45122;-67
2022/11/14 05:51:00;;;;;;;;;24.50;18.75;;;;;10.70;68.18;100714.34;5063533;28;45721;-69
2022/11/14 05:53:27;;;;;;;;;20.25;17.00;;;;;10.65;68.31;100713.31;5067579;28;45120;-68
2022/11/14 05:55:54;;;;;;;;;21.75;18.25;;;;;10.67;69.02;100711.59;5058118;28;45257;-70
2022/11/14 05:58:19;;;;;;;;;25.50;18.00;;;;;10.62;69.08;100691.88;5041238;28;45091;-69
2022/11/14 06:00:44;;;;;;;;;26.00;17.75;;;;;10.60;68.79;100689.16;5059920;28;45304;-69
2022/11/14 06:03:10;;;;;;;;;29.00;17.00;;;;;10.75;69.00;100707.34;5056361;28;45004;-69
2022/11/14 06:05:35;;;;;;;;;24.25;21.25;;;;;10.67;68.64;100690.22;5077412;28;45170;-67
2022/11/14 06:08:02;;;;;;;;;17.50;15.50;;;;;10.73;69.34;100695.72;5067515;28;45223;-69
2022/11/14 06:10:28;;;;;;;;;27.00;19.50;;;;;10.80;69.41;100692.31;5048213;28;47321;-66
2022/11/14 06:12:54;;;;;;;;;23.25;17.75;;;;;10.72;69.19;100685.88;5056318;28;46389;-67
2022/11/14 06:15:19;;;;;;;;;18.75;18.00;;;;;10.77;69.25;100700.25;5063534;28;44938;-67
2022/11/14 06:17:44;;;;;;;;;19.50;17.25;;;;;10.77;69.54;100697.59;5064281;28;45266;-64
2022/11/14 06:20:12;;;;;;;;;23.25;19.00;;;;;10.72;69.50;100696.56;5057494;28;56882;-66
2022/11/14 06:22:40;;;;;;;;;26.75;19.75;;;;;10.55;69.06;100660.53;5054487;28;45236;-67
2022/11/14 06:25:06;;;;;;;;;23.50;18.00;;;;;10.64;69.48;100699.06;5066343;28;45379;-70
2022/11/14 06:27:32;;;;;;;;;33.00;24.00;;;;;10.51;69.96;100683.59;5035813;28;45582;-68
2022/11/14 06:29:57;;;;;;;;;35.50;20.25;;;;;10.63;69.05;100709.72;5034663;28;46694;-69
2022/11/14 06:32:22;;;;;;;;;32.00;24.25;;;;;10.65;69.62;100714.22;5055655;28;45322;-69
2022/11/14 06:34:47;;;;;;;;;26.50;18.25;;;;;10.64;69.88;100711.50;5067922;28;45274;-69
2022/11/14 06:37:13;;;;;;;;;33.00;21.75;;;;;10.60;69.28;100704.28;5061427;28;45137;-67
2022/11/14 06:39:38;;;;;;;;;36.00;24.75;;;;;10.51;69.38;100692.50;5060645;28;46018;-67
2022/11/14 06:42:04;;;;;;;;;24.00;23.00;;;;;10.55;69.45;100709.50;5056911;28;45058;-68
2022/11/14 06:44:29;;;;;;;;;24.75;21.75;;;;;10.42;70.30;100704.72;5037903;28;45457;-66
2022/11/14 06:46:55;;;;;;;;;23.00;16.00;;;;;10.42;70.44;100708.28;5059179;28;45058;-71
2022/11/14 06:49:20;;;;;;;;;25.00;18.25;;;;;10.45;70.08;100712.81;5056158;28;45184;-69
2022/11/14 06:51:46;;;;;;;;;18.75;18.00;;;;;10.38;70.25;100685.03;5063402;28;45025;-67
2022/11/14 06:54:12;;;;;;;;;20.25;20.00;;;;;10.51;70.19;100700.53;5057215;28;44899;-67
2022/11/14 06:56:37;;;;;;;;;18.25;16.75;;;;;10.61;69.76;100725.72;5060251;28;45160;-67
2022/11/14 06:59:02;;;;;;;;;18.00;17.00;;;;;10.61;69.34;100720.38;5055846;28;45793;-67
2022/11/14 07:01:28;;;;;;;;;26.00;19.00;;;;;10.57;69.47;100717.56;5075981;28;45184;-68
2022/11/14 07:03:55;;;;;;;;;23.75;17.75;;;;;10.57;69.97;100730.94;5063963;28;45261;-67
2022/11/14 07:06:25;;;;;;;;;19.25;15.25;;;;;10.52;70.03;100722.78;5082152;28;45295;-66
2022/11/14 07:08:52;;;;;;;;;23.75;20.75;;;;;10.54;69.70;100736.19;5051731;28;45378;-67
2022/11/14 07:11:21;;;;;;;;;24.25;18.25;;;;;10.54;69.56;100736.19;5064405;28;44969;-67
2022/11/14 07:13:59;;;;;;;;;23.25;18.50;;;;;10.58;69.50;100743.44;5061886;28;45075;-69
2022/11/14 07:16:30;;;;;;;;;23.75;18.50;;;;;10.60;69.20;100750.59;5049605;28;45085;-69
2022/11/14 07:18:57;;;;;;;;;21.00;17.25;;;;;10.59;69.76;100750.56;5056338;28;45417;-66
2022/11/14 07:21:24;;;;;;;;;17.75;14.50;;;;;10.54;69.24;100738.84;5057977;28;45255;-66
2022/11/14 07:23:49;;;;;;;;;16.00;14.50;;;;;10.56;69.59;100739.78;5054358;28;45322;-67
2022/11/14 07:26:15;;;;;;;;;16.75;15.50;;;;;10.50;69.20;100716.50;5054258;28;45394;-66
2022/11/14 07:28:42;;;;;;;;;22.00;20.25;;;;;10.61;69.52;100741.75;5054633;28;46381;-68
2022/11/14 07:31:11;;;;;;;;;17.25;16.00;;;;;10.62;69.80;100729.28;5052620;28;45389;-69
2022/11/14 07:33:37;;;;;;;;;20.50;18.75;;;;;10.66;69.07;100749.88;5056326;28;46002;-68
2022/11/14 07:36:03;;;;;;;;;16.75;15.00;;;;;10.64;68.85;100748.91;5049763;28;45661;-69
2022/11/14 07:38:33;;;;;;;;;16.50;14.50;;;;;10.59;68.88;100756.84;5031206;28;45651;-69
2022/11/14 07:41:01;;;;;;;;;17.50;12.75;;;;;10.51;69.07;100761.06;5018322;28;45493;-69
2022/11/14 07:43:27;;;;;;;;;21.75;15.75;;;;;10.47;68.54;100761.84;5041370;28;45386;-69
2022/11/14 07:45:57;;;;;;;;;27.00;18.00;;;;;10.41;68.37;100729.59;5026959;28;45748;-68
2022/11/14 07:48:22;;;;;;;;;20.75;17.50;;;;;10.41;69.32;100748.31;5021779;28;48565;-67
2022/11/14 07:50:48;;;;;;;;;17.25;15.75;;;;;10.40;68.83;100742.06;5036217;28;45355;-66
2022/11/14 07:53:14;;;;;;;;;27.50;22.50;;;;;10.38;69.45;100750.88;5033078;28;45807;-67
2022/11/14 07:55:39;;;;;;;;;29.75;24.50;;;;;10.28;69.58;100718.56;5042689;28;45462;-67
2022/11/14 07:58:05;;;;;;;;;19.75;19.25;;;;;10.42;68.66;100744.78;5023196;28;48022;-67
2022/11/14 08:00:30;;;;;;;;;29.00;20.25;;;;;10.35;68.36;100742.81;5018139;28;45477;-66
2022/11/14 08:02:56;;;;;;;;;17.75;16.25;;;;;10.28;69.29;100739.94;5017891;28;45758;-67
2022/11/14 08:05:21;;;;;;;;;24.00;22.25;;;;;10.40;69.21;100742.06;5038686;28;45604;-67
2022/11/14 08:07:50;;;;;;;;;21.25;21.25;;;;;10.46;68.54;100750.25;5036758;28;46741;-65
2022/11/14 08:10:17;;;;;;;;;26.00;20.50;;;;;10.47;68.58;100744.03;5036565;28;45412;-67
2022/11/14 08:12:43;;;;;;;;;25.00;22.50;;;;;10.50;68.55;100740.56;5040580;28;45276;-67
2022/11/14 08:15:11;;;;;;;;;27.50;23.50;;;;;10.51;68.60;100743.25;5039030;28;45687;-67
2022/11/14 08:17:36;;;;;;;;;31.25;24.75;;;;;10.57;68.29;100738.94;5044040;28;46156;-67
2022/11/14 08:20:06;;;;;;;;;24.25;18.25;;;;;10.44;68.23;100708.31;5038359;28;45376;-66
2022/11/14 08:22:31;;;;;;;;;24.75;21.25;;;;;10.43;68.81;100722.56;5016366;28;45419;-69
2022/11/14 08:24:57;;;;;;;;;16.25;16.00;;;;;10.48;68.49;100737.84;5038053;28;45497;-66
2022/11/14 08:27:23;;;;;;;;;29.25;23.50;;;;;10.50;69.29;100737.88;5045305;28;46131;-66
2022/11/14 08:29:49;;;;;;;;;22.00;21.00;;;;;10.45;68.44;100737.75;5046381;28;45321;-66
2022/11/14 08:32:15;;;;;;;;;26.00;21.00;;;;;10.27;69.24;100724.78;5037205;28;45387;-66
2022/11/14 08:34:41;;;;;;;;;26.00;22.75;;;;;10.39;69.46;100739.34;5034614;28;45573;-66
2022/11/14 08:37:06;;;;;;;;;23.25;21.00;;;;;10.45;69.06;100734.19;5044130;28;45539;-64
2022/11/14 08:39:31;;;;;;;;;18.25;16.00;;;;;10.51;69.48;100739.69;5027623;28;45742;-63
2022/11/14 08:41:57;;;;;;;;;20.75;20.00;;;;;10.56;68.84;100743.38;5037299;28;45371;-64
2022/11/14 08:44:22;;;;;;;;;27.50;21.75;;;;;10.49;68.67;100728.97;5034315;28;45422;-69
2022/11/14 08:46:49;;;;;;;;;23.75;20.25;;;;;10.55;69.07;100748.69;5030504;28;46178;-67
2022/11/14 08:49:14;;;;;;;;;26.75;21.75;;;;;10.42;69.25;100715.41;5034183;28;45556;-68
2022/11/14 08:51:40;;;;;;;;;24.75;21.50;;;;;10.58;68.26;100740.75;5022840;28;45570;-66
2022/11/14 08:54:06;;;;;;;;;21.00;18.75;;;;;10.61;69.07;100741.75;5047026;28;45442;-68
2022/11/14 08:56:31;;;;;;;;;27.00;20.50;;;;;10.67;68.55;100749.00;5035408;28;45599;-65
2022/11/14 08:58:57;;;;;;;;;29.00;20.50;;;;;10.71;68.27;100745.56;5035529;28;47186;-67
2022/11/14 09:01:22;;;;;;;;;27.75;21.25;;;;;10.75;68.12;100752.78;5048615;28;45690;-66
2022/11/14 09:03:48;;;;;;;;;31.75;26.00;;;;;10.69;67.80;100744.59;5042216;28;45423;-66
2022/11/14 09:06:13;;;;;;;;;27.00;22.75;;;;;10.60;69.04;100742.59;5039968;28;46100;-67
2022/11/14 09:08:39;;;;;;;;;29.00;21.25;;;;;10.62;68.17;100727.50;5037873;28;45406;-67
2022/11/14 09:11:05;;;;;;;;;25.75;22.00;;;;;10.77;68.27;100739.44;5039612;28;45446;-66
2022/11/14 09:13:33;;;;;;;;;28.50;26.00;;;;;10.86;68.06;100748.59;5046962;28;45419;-68
2022/11/14 09:15:59;;;;;;;;;28.75;22.50;;;;;10.74;67.48;100745.63;5036409;28;45553;-67
2022/11/14 09:18:24;;;;;;;;;30.25;23.00;;;;;10.67;68.36;100740.97;5033489;28;49226;-66
2022/11/14 09:20:50;;;;;;;;;33.25;21.25;;;;;10.78;68.68;100750.19;5034320;28;45279;-67
2022/11/14 09:23:15;;;;;;;;;29.25;24.00;;;;;10.69;67.97;100732.16;5038952;28;45377;-67
2022/11/14 09:25:40;;;;;;;;;23.50;21.75;;;;;10.81;68.60;100755.59;5026139;28;45456;-69
2022/11/14 09:28:07;;;;;;;;;29.25;25.25;;;;;10.82;67.71;100748.47;5042927;28;45358;-68
2022/11/14 09:30:34;;;;;;;;;24.00;20.50;;;;;10.84;67.85;100745.00;5051397;28;45660;-66
2022/11/14 09:33:03;;;;;;;;;19.25;19.25;;;;;10.91;67.35;100747.84;5038144;28;45415;-67
2022/11/14 09:35:30;;;;;;;;;21.25;19.75;;;;;10.94;67.51;100751.47;5047210;28;45961;-66
2022/11/14 09:38:04;;;;;;;;;29.75;21.75;;;;;10.94;68.08;100748.81;5035758;28;45342;-68
2022/11/14 09:40:40;;;;;;;;;29.25;26.25;;;;;10.96;67.63;100749.75;5042463;28;45343;-67
2022/11/14 09:43:38;;;;;;;;;23.50;20.50;;;;;10.92;68.19;100750.50;5038321;28;45552;-66
2022/11/14 09:46:11;;;;;;;;;20.75;20.75;;;;;10.98;67.65;100744.44;5030076;28;48095;-67
2022/11/14 09:48:37;;;;;;;;;29.75;24.75;;;;;10.89;67.72;100739.78;5049219;28;45399;-68
2022/11/14 09:51:22;;;;;;;;;28.75;23.50;;;;;10.77;68.21;100735.00;5040431;28;45474;-67
2022/11/14 09:53:53;;;;;;;;;26.50;25.25;;;;;10.85;68.03;100738.75;5018616;28;45480;-66
2022/11/14 09:56:24;;;;;;;;;30.25;26.25;;;;;10.77;68.25;100726.09;5042005;28;46245;-66
2022/11/14 09:58:49;;;;;;;;;35.25;27.00;;;;;10.81;68.30;100728.00;5041715;28;45418;-67
2022/11/14 10:01:45;;;;;;;;;25.50;21.50;;;;;10.90;68.52;100740.66;5024425;28;45557;-68
2022/11/14 10:04:37;;;;;;;;;29.25;24.75;;;;;10.98;67.82;100739.97;5033529;28;45514;-67
2022/11/14 10:07:14;;;;;;;;;24.50;20.75;;;;;11.03;67.84;100738.31;5039840;28;45586;-65
2022/11/14 10:09:51;;;;;;;;;17.50;17.00;;;;;11.03;67.24;100743.66;5039984;28;45492;-64
2022/11/14 10:12:23;;;;;;;;;24.75;20.25;;;;;10.98;67.15;100744.44;5047862;28;45540;-64
2022/11/14 10:15:04;;;;;;;;;25.25;22.25;;;;;11.06;67.44;100750.88;5038201;28;45751;-67
2022/11/14 10:17:48;;;;;;;;;26.00;17.75;;;;;11.01;67.42;100726.69;5029861;28;45442;-66
2022/11/14 10:20:31;;;;;;;;;27.75;18.75;;;;;11.13;67.13;100739.44;5043735;28;45550;-66
2022/11/14 10:23:20;;;;;;;;;19.00;17.75;;;;;11.24;66.81;100739.72;5037895;28;45469;-66
2022/11/14 10:26:04;;;;;;;;;25.50;20.25;;;;;11.29;67.07;100734.47;5037055;28;45461;-66
2022/11/14 10:28:33;;;;;;;;;26.50;20.75;;;;;11.35;66.34;100729.25;5046987;28;45669;-67
2022/11/14 10:31:14;;;;;;;;;27.25;24.50;;;;;11.32;66.81;100730.09;5043743;28;45694;-66
2022/11/14 10:34:08;;;;;;;;;21.75;16.75;;;;;11.35;66.29;100732.84;5039801;28;45568;-69
2022/11/14 10:36:51;;;;;;;;;19.00;17.50;;;;;11.38;65.95;100722.22;5041084;28;45525;-67
2022/11/14 10:39:23;;;;;;;;;24.00;18.75;;;;;11.43;66.02;100724.97;5032398;28;45734;-68
2022/11/14 10:41:54;;;;;;;;;20.50;20.50;;;;;11.40;65.82;100706.19;5037669;28;45513;-67
2022/11/14 10:44:33;;;;;;;;;17.00;14.75;;;;;11.38;65.51;100691.88;5029715;28;45363;-67
2022/11/14 10:47:05;;;;;;;;;16.75;15.50;;;;;11.43;66.01;100699.16;5072757;28;45016;-72
2022/11/14 10:49:37;;;;;;;;;20.50;18.50;;;;;11.60;66.20;100707.53;5063516;28;45819;-68
2022/11/14 10:52:31;;;;;;;;;20.50;19.00;;;;;11.74;65.29;100696.22;5037194;28;45092;-68
2022/11/14 10:55:03;;;;;;;;;21.25;20.00;;;;;11.76;65.18;100699.81;5045560;28;45077;-67
2022/11/14 10:57:29;;;;;;;;;24.75;21.75;;;;;11.84;65.30;100699.97;5051222;28;45136;-69
2022/11/14 10:59:54;;;;;;;;;31.50;27.75;;;;;11.81;64.63;100679.41;5058898;28;45107;-66
2022/11/14 11:02:20;;;;;;;;;27.75;22.75;;;;;11.87;64.45;100675.97;5062785;28;45215;-73
2022/11/14 11:04:46;;;;;;;;;28.75;20.75;;;;;11.47;64.53;100601.13;5062370;28;45238;-70
2022/11/14 11:11:28;;;;;;;;;32.75;25.75;;;;;12.05;64.90;100696.88;5056014;28;45068;-69
2022/11/14 11:12:46;;;;;;;;;24.75;20.00;;;;;12.26;62.94;100675.84;5054193;28;45293;-70